This is the latest recevied weather packets stored in our database for station/object KD5HIA. If no packets are shown the sender has not sent any weather packets the latest 1 day(s).
| Time | Temp. | Humidity | Pressure | Rain* | Wind** | Luminosity | Snow |
|---|---|---|---|---|---|---|---|
| 1778097017 | 18.89° C | 67% | 1013.7 hPa | 0 mm | - | 842 W/m² | - |
| 1778090417 | 15.56° C | 74% | 1014.3 hPa | 0 mm | - | 337 W/m² | - |
| 1778079017 | 12.78° C | 85% | 1013.1 hPa | 0 mm | - | 125 W/m² | - |
| 1778075417 | 11.67° C | 87% | 1012.7 hPa | 0 mm | - | 67 W/m² | - |
| 1778073017 | 12.22° C | 87% | 1012.2 hPa | 0.25 mm | - | 40 W/m² | - |
| 1778070617 | 12.78° C | 80% | 1012.6 hPa | 0 mm | - | 0 W/m² | - |
| 1778060417 | 15.56° C | 74% | 1010.2 hPa | 0 mm | - | 0 W/m² | - |
| 1778055617 | 16.67° C | 72% | 1009.8 hPa | 0 mm | - | 0 W/m² | - |
| 1778055017 | 17.22° C | 72% | 1009.9 hPa | 0 mm | - | 0 W/m² | - |
| 1778052616 | 18.33° C | 71% | 1009.8 hPa | 0 mm | - | 0 W/m² | - |
| 1778051417 | 18.33° C | 70% | 1009.9 hPa | 0 mm | - | 0 W/m² | - |
| 1778048420 | 20° C | 65% | 1009.2 hPa | 0 mm | - | 0 W/m² | - |
| 1778046017 | 21.11° C | 60% | 1009 hPa | 0 mm | - | 0 W/m² | - |
| 1778045417 | 21.67° C | 58% | 1009 hPa | 0 mm | - | 0 W/m² | - |
| 1778043617 | 22.78° C | 45% | 1008.4 hPa | 0 mm | - | 0 W/m² | - |
| 1778040017 | 22.78° C | 47% | 1008.2 hPa | 0 mm | - | 0 W/m² | - |
| 1778037017 | 25.56° C | 31% | 1007.6 hPa | 0 mm | - | 0 W/m² | - |
| 1778035217 | 26.11° C | 30% | 1007.6 hPa | 0 mm | - | 0 W/m² | - |
| 1778034616 | 26.67° C | 30% | 1007.5 hPa | 0 mm | - | 0 W/m² | - |
| 1778032817 | 27.78° C | 27% | 1007.2 hPa | 0 mm | - | 0 W/m² | - |
| 1778031617 | 28.33° C | 25% | 1006.8 hPa | 0 mm | - | 0 W/m² | - |
| 1778030417 | 29.44° C | 25% | 1006.5 hPa | 0 mm | - | 5 W/m² | - |
| 1778027417 | 31.11° C | 27% | 1006 hPa | 0 mm | - | 85 W/m² | - |
| 1778024417 | 32.22° C | 25% | 1005.9 hPa | 0 mm | - | 140 W/m² | - |
| 1778023217 | 32.22° C | 25% | 1006 hPa | 0 mm | - | 164 W/m² | - |
* Rain latest hour (hover to see other rain measurements)
** Current wind speed in m/s (hover to see current wind gust speed)